createdAt,value
2023-01-17T00:02:11.086Z,98201.50
2023-01-17T00:05:31.711Z,98193.94
2023-01-17T00:08:52.217Z,98197.84
2023-01-17T00:11:54.194Z,98195.88
2023-01-17T00:14:56.637Z,98194.37
2023-01-17T00:17:58.713Z,98189.16
2023-01-17T00:21:19.400Z,98176.00
2023-01-17T00:24:39.789Z,98185.78
2023-01-17T00:27:41.626Z,98183.53
2023-01-17T00:30:43.428Z,98185.22
2023-01-17T00:33:45.240Z,98190.16
2023-01-17T00:36:47.066Z,98181.81
2023-01-17T00:39:48.882Z,98172.56
2023-01-17T00:42:50.713Z,98173.97
2023-01-17T00:46:11.616Z,98174.88
2023-01-17T00:49:31.983Z,98182.59
2023-01-17T00:52:52.237Z,98178.38
2023-01-17T00:56:12.611Z,98167.03
2023-01-17T00:59:33.202Z,98180.13
2023-01-17T01:02:54.328Z,98172.25
2023-01-17T01:06:14.616Z,98178.16
2023-01-17T01:09:35.169Z,98181.50
2023-01-17T01:12:55.528Z,98171.19
2023-01-17T01:16:19.418Z,98184.44
2023-01-17T01:19:39.842Z,98176.06
2023-01-17T01:23:00.489Z,98173.34
2023-01-17T01:26:21.769Z,98159.94
2023-01-17T01:29:42.362Z,98171.69
2023-01-17T01:33:02.891Z,98185.31
2023-01-17T01:36:06.683Z,98194.31
2023-01-17T01:39:08.554Z,98182.91
2023-01-17T01:42:16.442Z,98190.06
2023-01-17T01:45:19.805Z,98187.59
2023-01-17T01:48:30.885Z,98203.69
2023-01-17T01:51:38.838Z,98203.84
2023-01-17T01:54:42.066Z,98200.94
2023-01-17T01:57:44.419Z,98197.00
2023-01-17T02:00:46.354Z,98179.37
2023-01-17T02:03:48.315Z,98176.50
2023-01-17T02:06:51.906Z,98161.28
2023-01-17T02:09:53.890Z,98152.94
2023-01-17T02:12:55.757Z,98143.06
2023-01-17T02:16:01.435Z,98142.34
2023-01-17T02:19:20.827Z,98133.69
2023-01-17T02:22:31.874Z,98134.78
2023-01-17T02:25:52.352Z,98142.78
2023-01-17T02:29:14.565Z,98146.56
2023-01-17T02:32:25.599Z,98146.91
2023-01-17T02:35:38.151Z,98154.81
2023-01-17T02:38:49.304Z,98155.16
2023-01-17T02:41:52.072Z,98148.44
2023-01-17T02:44:53.967Z,98141.06
2023-01-17T02:47:55.948Z,98133.31
2023-01-17T02:51:08.159Z,98128.03
2023-01-17T02:54:10.054Z,98123.41
2023-01-17T02:57:12.088Z,98106.75
2023-01-17T03:00:14.057Z,98103.97
2023-01-17T03:03:21.782Z,98087.81
2023-01-17T03:06:25.400Z,98073.88
2023-01-17T03:09:27.268Z,98075.03
2023-01-17T03:12:33.129Z,98073.50
2023-01-17T03:15:35.006Z,98060.47
2023-01-17T03:18:37.083Z,98060.59
2023-01-17T03:21:39.008Z,98055.44
2023-01-17T03:24:40.961Z,98051.81
2023-01-17T03:27:42.917Z,98037.66
2023-01-17T03:30:44.992Z,98039.97
2023-01-17T03:33:47.137Z,98046.94
2023-01-17T03:36:48.958Z,98035.84
2023-01-17T03:39:50.863Z,98039.75
2023-01-17T03:42:52.701Z,98030.75
2023-01-17T03:45:59.095Z,98029.78
2023-01-17T03:49:01.079Z,98021.63
2023-01-17T03:52:03.106Z,98020.03
2023-01-17T03:55:05.677Z,98008.38
2023-01-17T03:58:07.529Z,98010.34
2023-01-17T04:01:09.603Z,97998.03
2023-01-17T04:04:11.652Z,98008.00
2023-01-17T04:07:13.622Z,98009.78
2023-01-17T04:10:15.721Z,98014.56
2023-01-17T04:13:17.605Z,98013.94
2023-01-17T04:16:19.609Z,98003.94
2023-01-17T04:19:22.538Z,98006.16
2023-01-17T04:22:24.507Z,98007.03
2023-01-17T04:25:26.529Z,98002.56
2023-01-17T04:28:28.394Z,98011.41
2023-01-17T04:31:30.328Z,98015.03
2023-01-17T04:34:32.276Z,98010.50
2023-01-17T04:37:34.155Z,98014.13
2023-01-17T04:40:36.013Z,98020.16
2023-01-17T04:43:38.402Z,98013.75
2023-01-17T04:46:40.256Z,98007.22
2023-01-17T04:49:44.080Z,98001.28
2023-01-17T04:52:46.095Z,98007.34
2023-01-17T04:55:48.021Z,98002.03
2023-01-17T04:58:49.916Z,98007.75
2023-01-17T05:01:51.842Z,98006.53
2023-01-17T05:04:53.736Z,98005.16
2023-01-17T05:07:55.996Z,98006.22
2023-01-17T05:10:58.039Z,98012.31
2023-01-17T05:14:00.279Z,98009.91
2023-01-17T05:17:03.179Z,98010.31
2023-01-17T05:20:05.318Z,98009.25
2023-01-17T05:23:07.218Z,98008.62
2023-01-17T05:26:09.178Z,98013.63
2023-01-17T05:29:11.314Z,98008.38
2023-01-17T05:32:13.224Z,98011.47
2023-01-17T05:35:15.804Z,98021.56
2023-01-17T05:38:17.690Z,98012.56
2023-01-17T05:41:19.682Z,98011.56
2023-01-17T05:44:21.598Z,98027.56
2023-01-17T05:47:23.665Z,98014.97
2023-01-17T05:50:26.706Z,98020.66
2023-01-17T05:53:28.645Z,98020.19
2023-01-17T05:56:30.542Z,98050.50
2023-01-17T05:59:37.415Z,98051.59
2023-01-17T06:02:39.781Z,98055.81
2023-01-17T06:05:41.894Z,98062.38
2023-01-17T06:08:43.739Z,98061.34
2023-01-17T06:11:45.822Z,98074.66
2023-01-17T06:14:47.762Z,98093.72
2023-01-17T06:17:49.578Z,98091.22
2023-01-17T06:20:54.825Z,98075.53
2023-01-17T06:23:56.793Z,98082.72
2023-01-17T06:26:58.755Z,98085.47
2023-01-17T06:30:00.657Z,98069.06
2023-01-17T06:33:02.790Z,98072.13
2023-01-17T06:36:04.997Z,98076.97
2023-01-17T06:39:07.013Z,98082.28
2023-01-17T06:42:09.145Z,98099.34
2023-01-17T06:45:11.604Z,98096.31
2023-01-17T06:48:13.750Z,98111.69
2023-01-17T06:51:15.961Z,98123.09
2023-01-17T06:54:18.904Z,98131.31
2023-01-17T06:57:20.830Z,98143.72
2023-01-17T07:00:22.774Z,98152.69
2023-01-17T07:03:25.594Z,98149.41
2023-01-17T07:06:28.989Z,98153.78
2023-01-17T07:09:31.073Z,98160.50
2023-01-17T07:12:32.990Z,98163.44
2023-01-17T07:15:35.150Z,98166.56
2023-01-17T07:18:37.155Z,98175.34
2023-01-17T07:21:41.363Z,98181.31
2023-01-17T07:24:43.290Z,98184.63
2023-01-17T07:27:45.160Z,98185.22
2023-01-17T07:30:47.107Z,98188.03
2023-01-17T07:33:49.094Z,98194.44
2023-01-17T07:36:51.041Z,98199.22
2023-01-17T07:39:54.023Z,98200.47
2023-01-17T07:43:02.249Z,98210.44
2023-01-17T07:46:05.467Z,98220.69
2023-01-17T07:49:07.540Z,98232.16
2023-01-17T07:52:09.860Z,98232.81
2023-01-17T07:55:11.942Z,98242.91
2023-01-17T07:58:15.089Z,98257.09
2023-01-17T08:01:17.087Z,98257.88
2023-01-17T08:04:18.972Z,98257.13
2023-01-17T08:07:20.914Z,98263.50
2023-01-17T08:10:23.336Z,98269.25
2023-01-17T08:13:25.402Z,98276.72
2023-01-17T08:16:28.847Z,98282.28
2023-01-17T08:19:31.223Z,98295.53
2023-01-17T08:22:33.323Z,98296.28
2023-01-17T08:25:35.860Z,98292.09
2023-01-17T08:28:37.775Z,98290.38
2023-01-17T08:31:39.926Z,98303.63
2023-01-17T08:34:42.039Z,98301.19
2023-01-17T08:37:43.992Z,98291.75
2023-01-17T08:40:46.150Z,98314.72
2023-01-17T08:43:48.921Z,98312.19
2023-01-17T08:46:50.799Z,98321.63
2023-01-17T08:49:52.806Z,98325.56
2023-01-17T08:53:00.852Z,98321.97
2023-01-17T08:56:04.082Z,98328.03
2023-01-17T08:59:06.338Z,98321.84
2023-01-17T09:02:14.919Z,98323.19
2023-01-17T09:05:17.450Z,98319.50
2023-01-17T09:08:19.630Z,98322.50
2023-01-17T09:11:21.662Z,98324.06
2023-01-17T09:14:24.272Z,98320.50
2023-01-17T09:17:26.275Z,98328.25
2023-01-17T09:20:30.212Z,98334.06
2023-01-17T09:23:32.176Z,98344.88
2023-01-17T09:26:34.085Z,98341.72
2023-01-17T09:29:36.207Z,98338.13
2023-01-17T09:32:38.211Z,98319.41
2023-01-17T09:35:40.189Z,98339.22
2023-01-17T09:38:42.546Z,98346.22
2023-01-17T09:41:47.322Z,98359.91
2023-01-17T09:44:52.697Z,98351.69
2023-01-17T09:47:54.639Z,98356.16
2023-01-17T09:50:58.360Z,98362.81
2023-01-17T09:54:02.437Z,98377.91
2023-01-17T09:57:13.949Z,98377.41
2023-01-17T10:00:31.361Z,98389.44
2023-01-17T10:03:46.123Z,98393.53
2023-01-17T10:07:06.910Z,98387.31
2023-01-17T10:10:08.872Z,98396.66
2023-01-17T10:13:33.831Z,98387.94
2023-01-17T10:16:44.856Z,98391.84
2023-01-17T10:19:53.639Z,98391.94
2023-01-17T10:23:14.107Z,98397.97
2023-01-17T10:26:22.100Z,98399.25
2023-01-17T10:29:24.214Z,98399.56
2023-01-17T10:32:26.634Z,98402.97
2023-01-17T10:35:34.662Z,98384.19
2023-01-17T10:38:37.355Z,98387.72
2023-01-17T10:41:45.973Z,98390.19
2023-01-17T10:44:53.074Z,98377.59
2023-01-17T10:48:16.296Z,98358.22
2023-01-17T10:51:22.004Z,98360.34
2023-01-17T10:54:42.510Z,98345.34
2023-01-17T10:57:45.567Z,98355.06
2023-01-17T11:01:11.010Z,98353.63
2023-01-17T11:04:21.281Z,98342.44
2023-01-17T11:07:27.851Z,98337.00
2023-01-17T11:10:38.049Z,98329.53
2023-01-17T11:13:40.032Z,98316.44
2023-01-17T11:16:42.413Z,98309.59
2023-01-17T11:19:47.683Z,98313.44
2023-01-17T11:23:08.429Z,98325.13
2023-01-17T11:26:21.545Z,98309.41
2023-01-17T11:29:26.882Z,98309.13
2023-01-17T11:32:31.271Z,98300.50
2023-01-17T11:35:36.948Z,98292.03
2023-01-17T11:38:38.921Z,98268.75
2023-01-17T11:41:43.131Z,98271.69
2023-01-17T11:44:45.030Z,98268.41
2023-01-17T11:47:46.954Z,98270.44
2023-01-17T11:50:58.408Z,98264.25
2023-01-17T11:54:17.217Z,98271.25
2023-01-17T11:57:32.939Z,98269.72
2023-01-17T12:00:37.942Z,98275.78
2023-01-17T12:03:46.334Z,98277.25
2023-01-17T12:06:57.989Z,98299.84
2023-01-17T12:10:00.353Z,98313.91
2023-01-17T12:13:27.257Z,98300.84
2023-01-17T12:16:38.207Z,98301.19
2023-01-17T12:19:41.497Z,98303.06
2023-01-17T12:22:52.812Z,98290.22
2023-01-17T12:26:13.101Z,98304.34
2023-01-17T12:29:15.000Z,98303.03
2023-01-17T12:32:29.982Z,98303.00
2023-01-17T12:35:39.995Z,98309.87
2023-01-17T12:38:42.066Z,98295.16
2023-01-17T12:41:43.971Z,98305.94
2023-01-17T12:45:06.145Z,98311.16
2023-01-17T12:48:26.200Z,98297.59
2023-01-17T12:51:29.587Z,98300.72
2023-01-17T12:54:34.100Z,98310.31
2023-01-17T12:57:41.729Z,98303.56
2023-01-17T13:00:44.263Z,98308.19
2023-01-17T13:03:52.412Z,98303.13
2023-01-17T13:07:00.545Z,98300.78
2023-01-17T13:10:05.183Z,98304.84
2023-01-17T13:13:20.410Z,98300.81
2023-01-17T13:16:30.520Z,98301.63
2023-01-17T13:19:51.669Z,98306.41
2023-01-17T13:22:53.761Z,98307.53
2023-01-17T13:25:57.599Z,98306.53
2023-01-17T13:29:20.115Z,98318.09
2023-01-17T13:32:43.390Z,98311.22
2023-01-17T13:35:52.246Z,98318.78
2023-01-17T13:39:14.459Z,98309.41
2023-01-17T13:42:22.840Z,98307.19
2023-01-17T13:45:26.719Z,98309.53
2023-01-17T13:48:30.774Z,98299.97
2023-01-17T13:51:52.629Z,98291.50
2023-01-17T13:54:54.746Z,98285.69
2023-01-17T13:57:56.765Z,98290.75
2023-01-17T14:00:58.805Z,98292.94
2023-01-17T14:04:05.056Z,98278.25
2023-01-17T14:07:13.601Z,98261.44
2023-01-17T14:10:21.508Z,98258.19
2023-01-17T14:13:38.951Z,98252.59
2023-01-17T14:16:40.860Z,98236.19
2023-01-17T14:19:47.230Z,98223.00
2023-01-17T14:22:51.609Z,98215.94
2023-01-17T14:25:53.590Z,98215.09
2023-01-17T14:28:56.009Z,98218.28
2023-01-17T14:32:02.146Z,98212.53
2023-01-17T14:35:04.777Z,98199.81
2023-01-17T14:38:26.215Z,98188.19
2023-01-17T14:41:31.450Z,98192.75
2023-01-17T14:44:34.171Z,98165.81
2023-01-17T14:47:37.327Z,98183.22
2023-01-17T14:50:40.179Z,98188.06
2023-01-17T14:53:45.211Z,98194.41
2023-01-17T14:56:48.206Z,98175.47
2023-01-17T14:59:50.254Z,98171.19
2023-01-17T15:02:52.731Z,98168.97
2023-01-17T15:05:55.958Z,98164.69
2023-01-17T15:09:01.192Z,98162.53
2023-01-17T15:12:03.283Z,98159.44
2023-01-17T15:15:05.594Z,98177.41
2023-01-17T15:18:13.689Z,98181.41
2023-01-17T15:21:16.267Z,98177.38
2023-01-17T15:24:19.916Z,98176.38
2023-01-17T15:27:21.820Z,98178.06
2023-01-17T15:30:25.307Z,98166.22
2023-01-17T15:33:27.507Z,98165.81
2023-01-17T15:36:32.552Z,98159.13
2023-01-17T15:39:35.293Z,98148.16
2023-01-17T15:42:37.257Z,98150.91
2023-01-17T15:45:39.204Z,98143.38
2023-01-17T15:48:42.262Z,98137.62
2023-01-17T15:51:47.170Z,98139.59
2023-01-17T15:54:51.839Z,98131.78
2023-01-17T15:57:53.838Z,98131.38
2023-01-17T16:00:55.980Z,98122.44
2023-01-17T16:03:58.770Z,98117.72
2023-01-17T16:07:30.532Z,98111.94
2023-01-17T16:10:33.488Z,98113.25
2023-01-17T16:13:37.836Z,98107.97
2023-01-17T16:16:40.140Z,98107.41
2023-01-17T16:19:42.162Z,98106.66
2023-01-17T16:22:44.515Z,98105.31
2023-01-17T16:25:47.591Z,98112.31
2023-01-17T16:28:50.016Z,98102.69
2023-01-17T16:31:51.990Z,98102.87
2023-01-17T16:34:53.967Z,98091.72
2023-01-17T16:38:02.901Z,98087.81
2023-01-17T16:41:04.822Z,98087.69
2023-01-17T16:44:06.697Z,98081.16
2023-01-17T16:47:08.606Z,98084.81
2023-01-17T16:50:11.331Z,98085.19
2023-01-17T16:53:13.643Z,98078.28
2023-01-17T16:56:16.985Z,98072.25
2023-01-17T16:59:19.029Z,98073.16
2023-01-17T17:02:21.002Z,98067.69
2023-01-17T17:05:23.039Z,98080.19
2023-01-17T17:08:24.947Z,98066.75
2023-01-17T17:11:26.830Z,98069.41
2023-01-17T17:14:29.492Z,98061.62
2023-01-17T17:17:34.479Z,98049.25
2023-01-17T17:20:36.499Z,98052.75
2023-01-17T17:23:38.458Z,98040.91
2023-01-17T17:26:41.021Z,98035.72
2023-01-17T17:29:42.918Z,98030.22
2023-01-17T17:32:45.328Z,98028.09
2023-01-17T17:35:47.369Z,98014.72
2023-01-17T17:38:53.122Z,98019.00
2023-01-17T17:41:55.120Z,98013.94
2023-01-17T17:44:57.475Z,98006.06
2023-01-17T17:47:59.463Z,98009.47
2023-01-17T17:51:01.834Z,97980.38
2023-01-17T17:54:07.794Z,97973.41
2023-01-17T17:57:09.782Z,97968.94
2023-01-17T18:00:11.920Z,97971.84
2023-01-17T18:03:14.051Z,97965.91
2023-01-17T18:06:17.550Z,97948.91
2023-01-17T18:09:19.586Z,97930.16
2023-01-17T18:12:21.637Z,97923.09
2023-01-17T18:15:24.247Z,97921.72
2023-01-17T18:18:28.255Z,97911.00
2023-01-17T18:21:34.328Z,97902.66
2023-01-17T18:24:36.730Z,97896.16
2023-01-17T18:27:42.676Z,97879.59
2023-01-17T18:30:44.696Z,97880.13
2023-01-17T18:33:46.588Z,97873.31
2023-01-17T18:36:48.517Z,97864.88
2023-01-17T18:39:50.508Z,97865.31
2023-01-17T18:42:52.797Z,97875.37
2023-01-17T18:45:55.274Z,97876.34
2023-01-17T18:48:57.747Z,97866.44
2023-01-17T18:52:00.203Z,97856.41
2023-01-17T18:55:02.281Z,97847.34
2023-01-17T18:58:04.261Z,97839.31
2023-01-17T19:01:16.837Z,97828.59
2023-01-17T19:04:19.320Z,97815.16
2023-01-17T19:07:21.717Z,97814.03
2023-01-17T19:10:23.684Z,97809.84
2023-01-17T19:13:25.583Z,97800.19
2023-01-17T19:16:28.552Z,97801.19
2023-01-17T19:19:30.594Z,97793.19
2023-01-17T19:22:32.540Z,97788.06
2023-01-17T19:25:34.968Z,97773.88
2023-01-17T19:28:37.484Z,97787.59
2023-01-17T19:31:42.610Z,97779.47
2023-01-17T19:34:45.145Z,97776.97
2023-01-17T19:37:47.773Z,97767.22
2023-01-17T19:40:49.617Z,97766.16
2023-01-17T19:43:55.572Z,97761.81
2023-01-17T19:46:57.875Z,97746.00
2023-01-17T19:49:59.812Z,97727.34
2023-01-17T19:53:01.816Z,97716.47
2023-01-17T19:56:07.673Z,97713.25
2023-01-17T19:59:09.845Z,97690.78
2023-01-17T20:02:12.055Z,97699.00
2023-01-17T20:05:14.407Z,97695.28
2023-01-17T20:08:16.317Z,97689.50
2023-01-17T20:11:22.271Z,97681.03
2023-01-17T20:14:24.543Z,97693.78
2023-01-17T20:17:26.350Z,97688.06
2023-01-17T20:20:32.529Z,97694.84
2023-01-17T20:23:38.811Z,97689.59
2023-01-17T20:26:40.997Z,97702.56
2023-01-17T20:29:43.997Z,97702.72
2023-01-17T20:32:46.586Z,97688.75
2023-01-17T20:35:51.615Z,97694.78
2023-01-17T20:39:02.374Z,97698.81
2023-01-17T20:42:04.372Z,97690.91
2023-01-17T20:45:07.582Z,97693.97
2023-01-17T20:48:09.760Z,97697.69
2023-01-17T20:51:11.846Z,97683.94
2023-01-17T20:54:14.699Z,97687.84
2023-01-17T20:57:16.610Z,97677.59
2023-01-17T21:00:18.815Z,97635.34
2023-01-17T21:03:20.659Z,97622.47
2023-01-17T21:06:22.882Z,97611.00
2023-01-17T21:09:25.015Z,97636.03
2023-01-17T21:12:26.849Z,97645.09
2023-01-17T21:15:28.810Z,97623.97
2023-01-17T21:18:33.278Z,97592.59
2023-01-17T21:21:35.146Z,97570.19
2023-01-17T21:24:37.102Z,97576.00
2023-01-17T21:27:38.952Z,97577.66
2023-01-17T21:30:40.905Z,97587.91
2023-01-17T21:33:42.864Z,97591.78
2023-01-17T21:36:44.809Z,97583.25
2023-01-17T21:39:51.437Z,97569.59
2023-01-17T21:42:53.323Z,97544.75
2023-01-17T21:45:55.503Z,97538.25
2023-01-17T21:48:57.947Z,97539.19
2023-01-17T21:51:59.875Z,97547.22
2023-01-17T21:55:20.211Z,97560.47
2023-01-17T21:58:40.561Z,97539.16
2023-01-17T22:01:42.789Z,97528.78
2023-01-17T22:04:44.829Z,97531.94
2023-01-17T22:08:05.344Z,97531.75
2023-01-17T22:11:14.480Z,97534.56
2023-01-17T22:14:16.379Z,97516.81
2023-01-17T22:17:18.285Z,97511.00
2023-01-17T22:20:21.406Z,97519.94
2023-01-17T22:23:23.596Z,97510.38
2023-01-17T22:26:26.534Z,97511.19
2023-01-17T22:29:28.475Z,97495.50
2023-01-17T22:32:30.273Z,97487.31
2023-01-17T22:35:32.799Z,97484.50
2023-01-17T22:38:34.662Z,97501.94
2023-01-17T22:41:37.450Z,97511.94
2023-01-17T22:44:39.388Z,97521.88
2023-01-17T22:47:41.341Z,97516.94
2023-01-17T22:50:43.179Z,97538.25
2023-01-17T22:53:49.017Z,97539.19
2023-01-17T22:56:50.891Z,97531.41
2023-01-17T22:59:52.758Z,97528.84
2023-01-17T23:02:54.951Z,97530.22
2023-01-17T23:05:57.500Z,97527.91
2023-01-17T23:09:00.701Z,97516.56
2023-01-17T23:12:02.596Z,97528.28
2023-01-17T23:15:23.551Z,97535.47
2023-01-17T23:18:43.901Z,97530.72
2023-01-17T23:22:04.498Z,97530.81
2023-01-17T23:25:07.798Z,97538.78
2023-01-17T23:28:14.527Z,97530.75
2023-01-17T23:31:16.534Z,97551.72
2023-01-17T23:34:18.618Z,97537.47
2023-01-17T23:37:20.814Z,97558.31
2023-01-17T23:40:22.677Z,97552.66
2023-01-17T23:43:24.571Z,97547.41
2023-01-17T23:46:26.951Z,97542.38
2023-01-17T23:49:31.366Z,97533.63
2023-01-17T23:52:33.227Z,97535.50
2023-01-17T23:55:36.053Z,97535.78
2023-01-17T23:58:38.176Z,97550.09
